sensor_id;sensor_type;location;lat;lon;timestamp;pressure;altitude;pressure_sealevel;temperature;humidity
34031;BME280;20319;28.466;-16.274;2023-11-18T00:00:31;95812.59;;;17.59;41.14
34031;BME280;20319;28.466;-16.274;2023-11-18T00:02:57;96054.50;;;19.03;41.47
34031;BME280;20319;28.466;-16.274;2023-11-18T00:05:23;96080.06;;;19.16;40.95
34031;BME280;20319;28.466;-16.274;2023-11-18T00:07:49;95835.53;;;17.67;40.89
34031;BME280;20319;28.466;-16.274;2023-11-18T00:10:15;96013.59;;;18.68;40.73
34031;BME280;20319;28.466;-16.274;2023-11-18T00:12:41;96064.16;;;19.09;41.18
34031;BME280;20319;28.466;-16.274;2023-11-18T00:15:08;96092.44;;;19.08;41.41
34031;BME280;20319;28.466;-16.274;2023-11-18T00:17:36;96079.03;;;18.98;40.79
34031;BME280;20319;28.466;-16.274;2023-11-18T00:20:02;96060.44;;;19.05;41.21
34031;BME280;20319;28.466;-16.274;2023-11-18T00:22:40;96048.66;;;18.96;40.77
34031;BME280;20319;28.466;-16.274;2023-11-18T00:25:07;96016.00;;;18.69;41.07
34031;BME280;20319;28.466;-16.274;2023-11-18T00:27:34;96067.88;;;19.00;40.95
34031;BME280;20319;28.466;-16.274;2023-11-18T00:30:03;96084.47;;;18.98;40.60
34031;BME280;20319;28.466;-16.274;2023-11-18T00:32:33;96014.41;;;18.68;40.95
34031;BME280;20319;28.466;-16.274;2023-11-18T00:34:58;96060.63;;;18.95;40.80
34031;BME280;20319;28.466;-16.274;2023-11-18T00:37:24;95860.41;;;17.50;40.47
34031;BME280;20319;28.466;-16.274;2023-11-18T00:39:50;95776.47;;;17.32;40.60
34031;BME280;20319;28.466;-16.274;2023-11-18T00:42:15;96057.41;;;18.93;40.35
34031;BME280;20319;28.466;-16.274;2023-11-18T00:44:41;96047.38;;;18.75;39.88
34031;BME280;20319;28.466;-16.274;2023-11-18T00:47:07;95821.03;;;17.58;40.30
34031;BME280;20319;28.466;-16.274;2023-11-18T00:49:33;95821.03;;;17.58;40.38
34031;BME280;20319;28.466;-16.274;2023-11-18T00:51:59;95957.78;;;18.48;39.97
34031;BME280;20319;28.466;-16.274;2023-11-18T00:54:25;95828.06;;;17.59;39.41
34031;BME280;20319;28.466;-16.274;2023-11-18T00:56:50;96063.13;;;18.92;39.73
34031;BME280;20319;28.466;-16.274;2023-11-18T00:59:16;95960.41;;;18.53;40.02
34031;BME280;20319;28.466;-16.274;2023-11-18T01:01:41;95702.44;;;16.91;39.41
34031;BME280;20319;28.466;-16.274;2023-11-18T01:04:07;95887.66;;;18.10;39.15
34031;BME280;20319;28.466;-16.274;2023-11-18T01:06:34;95923.44;;;18.25;39.34
34031;BME280;20319;28.466;-16.274;2023-11-18T01:08:59;95614.78;;;16.36;39.38
34031;BME280;20319;28.466;-16.274;2023-11-18T01:11:26;96000.56;;;18.83;38.88
34031;BME280;20319;28.466;-16.274;2023-11-18T01:13:52;96010.03;;;18.86;38.78
34031;BME280;20319;28.466;-16.274;2023-11-18T01:16:19;95550.47;;;15.96;38.89
34031;BME280;20319;28.466;-16.274;2023-11-18T01:18:45;96002.97;;;18.71;38.48
34031;BME280;20319;28.466;-16.274;2023-11-18T01:21:11;95730.69;;;17.17;38.66
34031;BME280;20319;28.466;-16.274;2023-11-18T01:23:38;96031.84;;;18.94;38.72
34031;BME280;20319;28.466;-16.274;2023-11-18T01:26:07;96012.06;;;18.94;39.05
34031;BME280;20319;28.466;-16.274;2023-11-18T01:28:36;95942.53;;;18.52;38.80
34031;BME280;20319;28.466;-16.274;2023-11-18T01:31:04;95984.22;;;18.56;39.08
34031;BME280;20319;28.466;-16.274;2023-11-18T01:33:32;96007.72;;;18.79;38.61
34031;BME280;20319;28.466;-16.274;2023-11-18T01:35:58;95755.13;;;17.30;38.28
34031;BME280;20319;28.466;-16.274;2023-11-18T01:38:24;95970.19;;;18.54;38.73
34031;BME280;20319;28.466;-16.274;2023-11-18T01:40:51;95976.31;;;18.60;38.62
34031;BME280;20319;28.466;-16.274;2023-11-18T01:43:19;95868.81;;;17.86;38.11
34031;BME280;20319;28.466;-16.274;2023-11-18T01:45:44;95939.22;;;18.55;37.79
34031;BME280;20319;28.466;-16.274;2023-11-18T01:48:10;95998.38;;;18.85;37.54
34031;BME280;20319;28.466;-16.274;2023-11-18T01:50:37;95842.41;;;17.78;37.52
34031;BME280;20319;28.466;-16.274;2023-11-18T01:53:05;95989.41;;;18.71;37.32
34031;BME280;20319;28.466;-16.274;2023-11-18T01:55:32;95890.47;;;18.18;37.49
34031;BME280;20319;28.466;-16.274;2023-11-18T01:58:00;95997.47;;;18.90;37.83
34031;BME280;20319;28.466;-16.274;2023-11-18T02:00:35;95691.00;;;16.94;37.50
34031;BME280;20319;28.466;-16.274;2023-11-18T02:03:04;96003.81;;;18.85;37.46
34031;BME280;20319;28.466;-16.274;2023-11-18T02:05:31;95926.94;;;18.44;38.22
34031;BME280;20319;28.466;-16.274;2023-11-18T02:08:02;96015.84;;;18.79;38.43
34031;BME280;20319;28.466;-16.274;2023-11-18T02:10:33;95991.50;;;18.74;38.21
34031;BME280;20319;28.466;-16.274;2023-11-18T02:13:13;95918.72;;;18.31;38.10
34031;BME280;20319;28.466;-16.274;2023-11-18T02:15:43;95988.38;;;18.67;37.89
34031;BME280;20319;28.466;-16.274;2023-11-18T02:18:11;95734.56;;;17.11;38.35
34031;BME280;20319;28.466;-16.274;2023-11-18T02:20:39;95678.28;;;16.76;37.90
34031;BME280;20319;28.466;-16.274;2023-11-18T02:23:05;95988.47;;;18.62;37.51
34031;BME280;20319;28.466;-16.274;2023-11-18T02:25:33;96023.75;;;18.62;38.00
34031;BME280;20319;28.466;-16.274;2023-11-18T02:27:59;95968.47;;;18.58;37.87
34031;BME280;20319;28.466;-16.274;2023-11-18T02:30:25;95925.56;;;18.28;38.58
34031;BME280;20319;28.466;-16.274;2023-11-18T02:33:18;95712.66;;;16.94;37.81
34031;BME280;20319;28.466;-16.274;2023-11-18T02:35:53;95883.63;;;18.07;37.56
34031;BME280;20319;28.466;-16.274;2023-11-18T02:38:29;95970.78;;;18.65;38.21
34031;BME280;20319;28.466;-16.274;2023-11-18T02:40:57;95978.22;;;18.59;37.97
34031;BME280;20319;28.466;-16.274;2023-11-18T02:43:24;95912.59;;;18.25;37.71
34031;BME280;20319;28.466;-16.274;2023-11-18T02:45:54;95687.63;;;16.83;37.78
34031;BME280;20319;28.466;-16.274;2023-11-18T02:48:22;95678.22;;;16.81;38.06
34031;BME280;20319;28.466;-16.274;2023-11-18T02:50:49;95761.38;;;17.26;38.25
34031;BME280;20319;28.466;-16.274;2023-11-18T02:53:14;95896.00;;;18.13;38.22
34031;BME280;20319;28.466;-16.274;2023-11-18T02:55:40;95927.28;;;18.38;37.85
34031;BME280;20319;28.466;-16.274;2023-11-18T02:58:06;95647.69;;;16.62;38.02
34031;BME280;20319;28.466;-16.274;2023-11-18T03:00:33;95903.44;;;18.21;37.91
34031;BME280;20319;28.466;-16.274;2023-11-18T03:02:59;95981.41;;;18.48;37.88
34031;BME280;20319;28.466;-16.274;2023-11-18T03:05:24;95814.00;;;17.57;38.01
34031;BME280;20319;28.466;-16.274;2023-11-18T03:07:51;95965.84;;;18.53;37.77
34031;BME280;20319;28.466;-16.274;2023-11-18T03:10:21;95596.28;;;16.24;37.71
34031;BME280;20319;28.466;-16.274;2023-11-18T03:12:47;95933.84;;;18.37;37.71
34031;BME280;20319;28.466;-16.274;2023-11-18T03:15:13;95898.72;;;18.13;37.31
34031;BME280;20319;28.466;-16.274;2023-11-18T03:17:45;95586.66;;;16.18;37.76
34031;BME280;20319;28.466;-16.274;2023-11-18T03:20:14;95867.19;;;17.85;37.25
34031;BME280;20319;28.466;-16.274;2023-11-18T03:22:49;95749.66;;;16.98;37.39
34031;BME280;20319;28.466;-16.274;2023-11-18T03:25:17;95989.25;;;18.49;37.44
34031;BME280;20319;28.466;-16.274;2023-11-18T03:27:43;95930.31;;;18.36;37.60
34031;BME280;20319;28.466;-16.274;2023-11-18T03:30:11;95901.31;;;18.18;37.76
34031;BME280;20319;28.466;-16.274;2023-11-18T03:32:38;95652.22;;;16.66;37.61
34031;BME280;20319;28.466;-16.274;2023-11-18T03:35:06;95960.78;;;18.47;37.76
34031;BME280;20319;28.466;-16.274;2023-11-18T03:37:40;95714.59;;;17.07;37.46
34031;BME280;20319;28.466;-16.274;2023-11-18T03:40:14;95967.03;;;18.47;36.92
34031;BME280;20319;28.466;-16.274;2023-11-18T03:42:42;95867.69;;;17.87;36.72
34031;BME280;20319;28.466;-16.274;2023-11-18T03:45:08;95909.28;;;18.28;37.52
34031;BME280;20319;28.466;-16.274;2023-11-18T03:47:35;95915.38;;;18.20;37.06
34031;BME280;20319;28.466;-16.274;2023-11-18T03:50:01;95667.63;;;16.84;36.90
34031;BME280;20319;28.466;-16.274;2023-11-18T03:52:26;95913.13;;;18.27;36.86
34031;BME280;20319;28.466;-16.274;2023-11-18T03:54:53;95850.47;;;17.97;36.28
34031;BME280;20319;28.466;-16.274;2023-11-18T03:57:20;95890.09;;;18.25;36.73
34031;BME280;20319;28.466;-16.274;2023-11-18T03:59:46;95864.25;;;18.14;36.56
34031;BME280;20319;28.466;-16.274;2023-11-18T04:02:12;95662.41;;;16.88;36.86
34031;BME280;20319;28.466;-16.274;2023-11-18T04:04:37;95798.41;;;17.67;36.97
34031;BME280;20319;28.466;-16.274;2023-11-18T04:07:04;95854.28;;;17.96;36.85
34031;BME280;20319;28.466;-16.274;2023-11-18T04:09:30;95940.19;;;18.46;37.44
34031;BME280;20319;28.466;-16.274;2023-11-18T04:11:55;95951.44;;;18.39;37.35
34031;BME280;20319;28.466;-16.274;2023-11-18T04:14:21;95851.22;;;17.84;37.46
34031;BME280;20319;28.466;-16.274;2023-11-18T04:16:48;95941.41;;;18.40;37.72
34031;BME280;20319;28.466;-16.274;2023-11-18T04:19:14;95845.00;;;17.83;37.83
34031;BME280;20319;28.466;-16.274;2023-11-18T04:21:40;95913.19;;;18.22;37.90
34031;BME280;20319;28.466;-16.274;2023-11-18T04:24:06;95932.19;;;18.36;37.32
34031;BME280;20319;28.466;-16.274;2023-11-18T04:26:32;95510.09;;;15.67;37.34
34031;BME280;20319;28.466;-16.274;2023-11-18T04:28:58;95914.38;;;18.16;37.96
34031;BME280;20319;28.466;-16.274;2023-11-18T04:31:26;95853.63;;;17.85;38.14
34031;BME280;20319;28.466;-16.274;2023-11-18T04:33:52;95786.84;;;17.43;37.59
34031;BME280;20319;28.466;-16.274;2023-11-18T04:36:21;95682.31;;;16.78;37.68
34031;BME280;20319;28.466;-16.274;2023-11-18T04:38:47;95919.63;;;18.26;37.53
34031;BME280;20319;28.466;-16.274;2023-11-18T04:41:13;95871.84;;;17.98;37.15
34031;BME280;20319;28.466;-16.274;2023-11-18T04:43:38;95667.13;;;16.64;37.39
34031;BME280;20319;28.466;-16.274;2023-11-18T04:46:07;95897.78;;;18.04;37.19
34031;BME280;20319;28.466;-16.274;2023-11-18T04:48:33;95806.56;;;17.49;37.51
34031;BME280;20319;28.466;-16.274;2023-11-18T04:50:59;95859.66;;;17.82;37.20
34031;BME280;20319;28.466;-16.274;2023-11-18T04:53:25;95700.00;;;16.71;36.91
34031;BME280;20319;28.466;-16.274;2023-11-18T04:55:51;95889.41;;;18.01;36.59
34031;BME280;20319;28.466;-16.274;2023-11-18T04:58:16;95642.69;;;16.50;36.75
34031;BME280;20319;28.466;-16.274;2023-11-18T05:00:42;95960.97;;;18.18;36.49
34031;BME280;20319;28.466;-16.274;2023-11-18T05:03:09;95899.69;;;18.04;36.48
34031;BME280;20319;28.466;-16.274;2023-11-18T05:05:38;95939.34;;;18.32;36.48
34031;BME280;20319;28.466;-16.274;2023-11-18T05:08:07;95820.13;;;17.44;36.85
34031;BME280;20319;28.466;-16.274;2023-11-18T05:10:36;95910.09;;;17.97;36.81
34031;BME280;20319;28.466;-16.274;2023-11-18T05:13:03;95935.88;;;18.26;37.02
34031;BME280;20319;28.466;-16.274;2023-11-18T05:15:28;95936.47;;;18.23;36.87
34031;BME280;20319;28.466;-16.274;2023-11-18T05:17:55;95863.25;;;17.78;36.52
34031;BME280;20319;28.466;-16.274;2023-11-18T05:20:21;95936.47;;;18.23;36.47
34031;BME280;20319;28.466;-16.274;2023-11-18T05:22:47;95798.84;;;17.37;36.45
34031;BME280;20319;28.466;-16.274;2023-11-18T05:25:13;95823.63;;;17.49;36.42
34031;BME280;20319;28.466;-16.274;2023-11-18T05:27:39;95936.06;;;18.16;36.19
34031;BME280;20319;28.466;-16.274;2023-11-18T05:30:09;95739.13;;;16.97;36.13
34031;BME280;20319;28.466;-16.274;2023-11-18T05:32:35;95844.81;;;17.61;36.33
34031;BME280;20319;28.466;-16.274;2023-11-18T05:35:01;95908.69;;;17.99;36.11
34031;BME280;20319;28.466;-16.274;2023-11-18T05:37:26;95974.72;;;18.22;36.26
34031;BME280;20319;28.466;-16.274;2023-11-18T05:39:55;95947.09;;;18.20;36.34
34031;BME280;20319;28.466;-16.274;2023-11-18T05:42:34;95879.81;;;17.76;36.63
34031;BME280;20319;28.466;-16.274;2023-11-18T05:45:04;95679.75;;;16.50;36.64
34031;BME280;20319;28.466;-16.274;2023-11-18T05:47:30;95889.31;;;17.73;36.71
34031;BME280;20319;28.466;-16.274;2023-11-18T05:49:56;95945.59;;;18.14;36.38
34031;BME280;20319;28.466;-16.274;2023-11-18T05:52:22;95762.72;;;16.73;36.45
34031;BME280;20319;28.466;-16.274;2023-11-18T05:54:48;95956.13;;;18.15;36.19
34031;BME280;20319;28.466;-16.274;2023-11-18T05:57:18;95683.59;;;16.44;36.40
34031;BME280;20319;28.466;-16.274;2023-11-18T05:59:44;95695.38;;;16.53;36.18
34031;BME280;20319;28.466;-16.274;2023-11-18T06:02:11;95858.72;;;17.54;36.28
34031;BME280;20319;28.466;-16.274;2023-11-18T06:04:43;95691.66;;;16.49;36.23
34031;BME280;20319;28.466;-16.274;2023-11-18T06:07:08;95957.84;;;17.93;36.21
34031;BME280;20319;28.466;-16.274;2023-11-18T06:09:34;95995.03;;;18.06;36.46
34031;BME280;20319;28.466;-16.274;2023-11-18T06:12:00;95728.06;;;16.56;36.35
34031;BME280;20319;28.466;-16.274;2023-11-18T06:14:27;95691.47;;;16.40;36.37
34031;BME280;20319;28.466;-16.274;2023-11-18T06:16:52;95756.84;;;16.66;36.50
34031;BME280;20319;28.466;-16.274;2023-11-18T06:19:18;95617.94;;;15.82;36.40
34031;BME280;20319;28.466;-16.274;2023-11-18T06:21:44;95935.94;;;17.70;36.67
34031;BME280;20319;28.466;-16.274;2023-11-18T06:24:09;95667.03;;;16.08;36.37
34031;BME280;20319;28.466;-16.274;2023-11-18T06:26:36;95954.25;;;17.60;36.59
34031;BME280;20319;28.466;-16.274;2023-11-18T06:29:03;95890.28;;;17.45;36.71
34031;BME280;20319;28.466;-16.274;2023-11-18T06:31:32;95904.56;;;17.51;36.90
34031;BME280;20319;28.466;-16.274;2023-11-18T06:33:58;95872.53;;;17.34;36.98
34031;BME280;20319;28.466;-16.274;2023-11-18T06:36:23;95955.50;;;17.86;37.26
34031;BME280;20319;28.466;-16.274;2023-11-18T06:38:53;95953.88;;;17.85;37.16
34031;BME280;20319;28.466;-16.274;2023-11-18T06:41:21;95739.44;;;16.53;37.75
34031;BME280;20319;28.466;-16.274;2023-11-18T06:43:49;95935.28;;;17.79;37.84
34031;BME280;20319;28.466;-16.274;2023-11-18T06:46:28;95980.69;;;17.87;37.94
34031;BME280;20319;28.466;-16.274;2023-11-18T06:48:57;95902.56;;;17.56;37.72
34031;BME280;20319;28.466;-16.274;2023-11-18T06:51:25;96004.78;;;17.88;38.06
34031;BME280;20319;28.466;-16.274;2023-11-18T06:53:55;95811.72;;;17.08;37.96
34031;BME280;20319;28.466;-16.274;2023-11-18T06:56:21;95926.72;;;17.53;38.13
34031;BME280;20319;28.466;-16.274;2023-11-18T06:58:47;95923.22;;;17.71;37.91
34031;BME280;20319;28.466;-16.274;2023-11-18T07:01:13;95932.28;;;17.80;37.97
34031;BME280;20319;28.466;-16.274;2023-11-18T07:03:41;95950.28;;;17.90;38.12
34031;BME280;20319;28.466;-16.274;2023-11-18T07:06:07;95885.38;;;17.47;37.88
34031;BME280;20319;28.466;-16.274;2023-11-18T07:08:35;95879.16;;;17.47;37.60
34031;BME280;20319;28.466;-16.274;2023-11-18T07:11:01;95910.09;;;17.59;37.73
34031;BME280;20319;28.466;-16.274;2023-11-18T07:13:27;95909.22;;;17.64;37.51
34031;BME280;20319;28.466;-16.274;2023-11-18T07:15:53;95975.44;;;17.77;37.56
34031;BME280;20319;28.466;-16.274;2023-11-18T07:18:25;95929.44;;;17.72;37.28
34031;BME280;20319;28.466;-16.274;2023-11-18T07:20:51;95988.75;;;17.92;37.08
34031;BME280;20319;28.466;-16.274;2023-11-18T07:23:20;95746.84;;;16.48;36.76
34031;BME280;20319;28.466;-16.274;2023-11-18T07:25:45;95952.50;;;17.69;36.98
34031;BME280;20319;28.466;-16.274;2023-11-18T07:28:12;95965.19;;;17.92;37.04
34031;BME280;20319;28.466;-16.274;2023-11-18T07:30:41;95748.44;;;16.49;36.48
34031;BME280;20319;28.466;-16.274;2023-11-18T07:33:08;95632.78;;;15.80;36.48
34031;BME280;20319;28.466;-16.274;2023-11-18T07:35:34;95832.03;;;16.87;36.19
34031;BME280;20319;28.466;-16.274;2023-11-18T07:38:02;95881.97;;;17.37;36.02
34031;BME280;20319;28.466;-16.274;2023-11-18T07:40:28;95885.72;;;17.41;36.22
34031;BME280;20319;28.466;-16.274;2023-11-18T07:42:56;95984.56;;;17.99;36.21
34031;BME280;20319;28.466;-16.274;2023-11-18T07:45:22;95983.97;;;18.02;36.18
34031;BME280;20319;28.466;-16.274;2023-11-18T07:47:52;95933.03;;;17.67;36.19
34031;BME280;20319;28.466;-16.274;2023-11-18T07:50:19;95786.78;;;16.74;36.21
34031;BME280;20319;28.466;-16.274;2023-11-18T07:52:46;95864.63;;;17.19;36.07
34031;BME280;20319;28.466;-16.274;2023-11-18T07:55:13;96029.38;;;18.10;36.12
34031;BME280;20319;28.466;-16.274;2023-11-18T07:57:39;95811.19;;;16.88;36.13
34031;BME280;20319;28.466;-16.274;2023-11-18T08:00:06;95993.16;;;18.06;36.17
34031;BME280;20319;28.466;-16.274;2023-11-18T08:02:38;95806.50;;;16.75;36.35
34031;BME280;20319;28.466;-16.274;2023-11-18T08:05:04;95524.34;;;15.02;36.35
34031;BME280;20319;28.466;-16.274;2023-11-18T08:07:34;95988.97;;;17.95;36.42
34031;BME280;20319;28.466;-16.274;2023-11-18T08:10:01;95983.34;;;17.92;36.55
34031;BME280;20319;28.466;-16.274;2023-11-18T08:12:30;95934.78;;;17.58;36.51
34031;BME280;20319;28.466;-16.274;2023-11-18T08:14:55;96018.47;;;18.15;36.75
34031;BME280;20319;28.466;-16.274;2023-11-18T08:17:21;96027.78;;;18.09;36.97
34031;BME280;20319;28.466;-16.274;2023-11-18T08:19:46;96019.81;;;18.18;36.71
34031;BME280;20319;28.466;-16.274;2023-11-18T08:22:12;95933.03;;;17.67;36.95
34031;BME280;20319;28.466;-16.274;2023-11-18T08:24:39;95983.63;;;17.90;37.07
34031;BME280;20319;28.466;-16.274;2023-11-18T08:27:04;95831.25;;;17.05;37.06
34031;BME280;20319;28.466;-16.274;2023-11-18T08:29:32;96060.47;;;18.18;37.41
34031;BME280;20319;28.466;-16.274;2023-11-18T08:31:58;95962.59;;;17.82;38.47
34031;BME280;20319;28.466;-16.274;2023-11-18T08:34:23;95931.41;;;17.66;38.15
34031;BME280;20319;28.466;-16.274;2023-11-18T08:36:51;95957.13;;;17.87;38.27
34031;BME280;20319;28.466;-16.274;2023-11-18T08:39:17;95961.34;;;17.93;38.31
34031;BME280;20319;28.466;-16.274;2023-11-18T08:41:48;96032.34;;;18.32;38.69
34031;BME280;20319;28.466;-16.274;2023-11-18T08:44:16;95792.19;;;16.93;38.96
34031;BME280;20319;28.466;-16.274;2023-11-18T08:46:43;96011.22;;;18.29;38.92
34031;BME280;20319;28.466;-16.274;2023-11-18T08:49:09;96013.38;;;18.32;38.60
34031;BME280;20319;28.466;-16.274;2023-11-18T08:51:37;95776.47;;;16.95;38.63
34031;BME280;20319;28.466;-16.274;2023-11-18T08:54:05;96008.31;;;18.44;38.28
34031;BME280;20319;28.466;-16.274;2023-11-18T08:56:50;95985.13;;;18.33;38.41
34031;BME280;20319;28.466;-16.274;2023-11-18T08:59:18;95801.63;;;17.14;38.36
34031;BME280;20319;28.466;-16.274;2023-11-18T09:01:52;96069.53;;;18.82;38.77
34031;BME280;20319;28.466;-16.274;2023-11-18T09:04:24;95839.69;;;17.59;38.32
34031;BME280;20319;28.466;-16.274;2023-11-18T09:06:53;95796.66;;;17.39;38.45
34031;BME280;20319;28.466;-16.274;2023-11-18T09:09:23;96053.69;;;19.03;38.89
34031;BME280;20319;28.466;-16.274;2023-11-18T09:11:54;96033.19;;;18.97;39.04
34031;BME280;20319;28.466;-16.274;2023-11-18T09:14:22;95792.50;;;17.47;38.97
34031;BME280;20319;28.466;-16.274;2023-11-18T09:16:50;95827.59;;;17.70;39.16
34031;BME280;20319;28.466;-16.274;2023-11-18T09:19:16;95855.75;;;17.88;38.46
34031;BME280;20319;28.466;-16.274;2023-11-18T09:21:45;96060.03;;;19.31;38.57
34031;BME280;20319;28.466;-16.274;2023-11-18T09:24:10;95920.69;;;18.44;38.06
34031;BME280;20319;28.466;-16.274;2023-11-18T09:26:39;96094.44;;;19.49;38.16
34031;BME280;20319;28.466;-16.274;2023-11-18T09:29:05;96050.28;;;19.43;38.36
34031;BME280;20319;28.466;-16.274;2023-11-18T09:31:36;96074.31;;;19.50;37.84
34031;BME280;20319;28.466;-16.274;2023-11-18T09:34:03;96079.94;;;19.80;38.08
34031;BME280;20319;28.466;-16.274;2023-11-18T09:36:32;96068.78;;;19.82;37.45
34031;BME280;20319;28.466;-16.274;2023-11-18T09:38:59;95974.78;;;19.27;38.27
34031;BME280;20319;28.466;-16.274;2023-11-18T09:41:25;95809.28;;;18.27;37.53
34031;BME280;20319;28.466;-16.274;2023-11-18T09:43:52;96071.00;;;19.80;37.92
34031;BME280;20319;28.466;-16.274;2023-11-18T09:46:26;96091.81;;;20.11;37.70
34031;BME280;20319;28.466;-16.274;2023-11-18T09:48:59;96091.03;;;19.97;37.72
34031;BME280;20319;28.466;-16.274;2023-11-18T09:51:41;96084.16;;;20.13;38.01
34031;BME280;20319;28.466;-16.274;2023-11-18T09:54:33;96079.22;;;20.02;37.76
34031;BME280;20319;28.466;-16.274;2023-11-18T09:57:31;96130.09;;;20.28;37.95
34031;BME280;20319;28.466;-16.274;2023-11-18T10:00:04;96104.81;;;20.14;38.35
34031;BME280;20319;28.466;-16.274;2023-11-18T10:02:57;96014.44;;;19.82;38.27
34031;BME280;20319;28.466;-16.274;2023-11-18T10:05:27;96072.91;;;20.20;38.72
34031;BME280;20319;28.466;-16.274;2023-11-18T10:07:53;96054.56;;;20.12;38.60
34031;BME280;20319;28.466;-16.274;2023-11-18T10:10:19;96095.00;;;20.40;38.79
34031;BME280;20319;28.466;-16.274;2023-11-18T10:12:52;96081.63;;;20.17;38.36
34031;BME280;20319;28.466;-16.274;2023-11-18T10:15:22;96101.72;;;20.57;38.71
34031;BME280;20319;28.466;-16.274;2023-11-18T10:17:51;95827.72;;;18.84;39.19
34031;BME280;20319;28.466;-16.274;2023-11-18T10:20:48;95864.56;;;19.12;39.58
34031;BME280;20319;28.466;-16.274;2023-11-18T10:23:18;96114.75;;;20.68;39.06
34031;BME280;20319;28.466;-16.274;2023-11-18T10:25:53;96134.31;;;20.70;39.46
34031;BME280;20319;28.466;-16.274;2023-11-18T10:28:22;95866.56;;;19.20;39.73
34031;BME280;20319;28.466;-16.274;2023-11-18T10:30:53;96115.78;;;20.72;39.43
34031;BME280;20319;28.466;-16.274;2023-11-18T10:33:18;95895.13;;;19.45;39.58
34031;BME280;20319;28.466;-16.274;2023-11-18T10:35:51;96097.03;;;20.71;39.50
34031;BME280;20319;28.466;-16.274;2023-11-18T10:38:18;95924.28;;;19.53;39.25
34031;BME280;20319;28.466;-16.274;2023-11-18T10:40:44;95934.78;;;19.81;39.44
34031;BME280;20319;28.466;-16.274;2023-11-18T10:43:10;96062.88;;;20.65;39.31
34031;BME280;20319;28.466;-16.274;2023-11-18T10:45:38;96124.34;;;21.01;39.68
34031;BME280;20319;28.466;-16.274;2023-11-18T10:48:07;96124.53;;;21.05;39.12
34031;BME280;20319;28.466;-16.274;2023-11-18T10:50:33;96118.47;;;21.08;39.65
34031;BME280;20319;28.466;-16.274;2023-11-18T10:53:02;96157.28;;;21.13;39.37
34031;BME280;20319;28.466;-16.274;2023-11-18T10:55:39;96125.56;;;21.17;39.13
34031;BME280;20319;28.466;-16.274;2023-11-18T10:58:06;96093.47;;;20.84;39.60
34031;BME280;20319;28.466;-16.274;2023-11-18T11:00:52;96085.13;;;21.02;39.58
34031;BME280;20319;28.466;-16.274;2023-11-18T11:03:25;95867.91;;;19.72;39.73
34031;BME280;20319;28.466;-16.274;2023-11-18T11:05:52;95864.56;;;19.75;39.37
34031;BME280;20319;28.466;-16.274;2023-11-18T11:08:19;96103.63;;;21.14;39.54
34031;BME280;20319;28.466;-16.274;2023-11-18T11:10:46;96012.84;;;20.74;39.22
34031;BME280;20319;28.466;-16.274;2023-11-18T11:13:16;96040.41;;;21.03;39.89
34031;BME280;20319;28.466;-16.274;2023-11-18T11:15:44;96060.38;;;21.21;39.60
34031;BME280;20319;28.466;-16.274;2023-11-18T11:18:12;95948.66;;;20.51;40.25
34031;BME280;20319;28.466;-16.274;2023-11-18T11:23:42;95612.47;;;18.39;39.70
34031;BME280;20319;28.466;-16.274;2023-11-18T11:28:57;96008.59;;;21.12;39.53
34031;BME280;20319;28.466;-16.274;2023-11-18T11:31:35;95875.09;;;20.34;39.03
34031;BME280;20319;28.466;-16.274;2023-11-18T11:34:06;96092.50;;;21.63;39.03
34031;BME280;20319;28.466;-16.274;2023-11-18T11:36:46;96082.94;;;21.74;38.18
34031;BME280;20319;28.466;-16.274;2023-11-18T11:39:12;96095.38;;;21.88;37.98
34031;BME280;20319;28.466;-16.274;2023-11-18T11:41:46;96096.97;;;21.89;37.90
34031;BME280;20319;28.466;-16.274;2023-11-18T11:44:17;95895.13;;;20.69;37.87
34031;BME280;20319;28.466;-16.274;2023-11-18T11:46:46;95919.03;;;20.80;37.08
34031;BME280;20319;28.466;-16.274;2023-11-18T11:49:19;95668.84;;;19.36;37.04
34031;BME280;20319;28.466;-16.274;2023-11-18T11:51:48;96019.06;;;21.66;36.74
34031;BME280;20319;28.466;-16.274;2023-11-18T11:54:23;96048.66;;;21.81;36.04
34031;BME280;20319;28.466;-16.274;2023-11-18T11:56:50;96058.97;;;21.93;36.62
34031;BME280;20319;28.466;-16.274;2023-11-18T12:02:17;95826.25;;;20.60;37.46
34031;BME280;20319;28.466;-16.274;2023-11-18T12:04:46;96057.22;;;22.06;37.63
34031;BME280;20319;28.466;-16.274;2023-11-18T12:07:19;95866.09;;;20.95;38.19
34031;BME280;20319;28.466;-16.274;2023-11-18T12:09:46;96045.69;;;22.09;38.61
34031;BME280;20319;28.466;-16.274;2023-11-18T12:12:19;95916.88;;;21.38;38.75
34031;BME280;20319;28.466;-16.274;2023-11-18T12:14:55;96046.16;;;22.19;38.90
34031;BME280;20319;28.466;-16.274;2023-11-18T12:17:22;95996.41;;;21.97;39.37
34031;BME280;20319;28.466;-16.274;2023-11-18T12:19:48;95833.47;;;21.03;39.51
34031;BME280;20319;28.466;-16.274;2023-11-18T12:22:18;95996.09;;;22.07;40.02
34031;BME280;20319;28.466;-16.274;2023-11-18T12:24:45;96032.38;;;22.33;40.04
34031;BME280;20319;28.466;-16.274;2023-11-18T12:27:12;95990.00;;;22.01;40.05
34031;BME280;20319;28.466;-16.274;2023-11-18T12:29:42;96009.59;;;22.29;39.79
34031;BME280;20319;28.466;-16.274;2023-11-18T12:32:11;95988.53;;;22.21;40.29
34031;BME280;20319;28.466;-16.274;2023-11-18T12:34:55;95938.94;;;21.84;40.27
34031;BME280;20319;28.466;-16.274;2023-11-18T12:43:15;95868.31;;;21.40;40.23
34031;BME280;20319;28.466;-16.274;2023-11-18T12:48:31;95963.53;;;22.36;40.09
34031;BME280;20319;28.466;-16.274;2023-11-18T12:50:58;95955.50;;;22.39;39.66
34031;BME280;20319;28.466;-16.274;2023-11-18T12:53:25;95743.78;;;21.07;39.02
34031;BME280;20319;28.466;-16.274;2023-11-18T12:55:52;95844.50;;;21.80;47.69
34031;BME280;20319;28.466;-16.274;2023-11-18T12:58:18;95985.34;;;22.70;53.91
34031;BME280;20319;28.466;-16.274;2023-11-18T13:00:44;95997.84;;;22.88;58.54
34031;BME280;20319;28.466;-16.274;2023-11-18T13:03:10;95986.91;;;22.88;62.85